createdAt,value
2022-11-03T04:56:14.750Z,1.37
2022-11-03T04:59:17.251Z,1.48
2022-11-03T05:02:21.278Z,1.30
2022-11-03T05:05:26.090Z,1.45
2022-11-03T05:08:28.198Z,1.23
2022-11-03T05:11:35.091Z,1.58
2022-11-03T05:14:37.549Z,0.93
2022-11-03T05:17:39.938Z,1.73
2022-11-03T05:20:56.438Z,1.40
2022-11-03T05:24:03.536Z,1.75
2022-11-03T05:27:08.892Z,1.43
2022-11-03T05:30:14.201Z,1.85
2022-11-03T05:33:25.677Z,1.40
2022-11-03T05:36:31.075Z,1.10
2022-11-03T05:39:46.024Z,2.00
2022-11-03T05:42:53.579Z,1.23
2022-11-03T05:45:58.623Z,2.08
2022-11-03T05:49:02.888Z,1.23
2022-11-03T05:52:13.563Z,1.55
2022-11-03T05:55:25.038Z,1.65
2022-11-03T05:58:29.321Z,1.30
2022-11-03T06:01:36.346Z,1.65
2022-11-03T06:04:40.447Z,1.58
2022-11-03T06:07:42.564Z,0.77
2022-11-03T06:10:51.431Z,0.95
2022-11-03T06:13:55.996Z,0.90
2022-11-03T06:17:07.262Z,1.15
2022-11-03T06:20:18.366Z,1.83
2022-11-03T06:23:21.459Z,1.80
2022-11-03T06:26:27.109Z,1.90
2022-11-03T06:29:31.581Z,1.48
2022-11-03T06:32:33.979Z,2.45
2022-11-03T06:35:36.284Z,1.10
2022-11-03T06:38:38.798Z,1.27
2022-11-03T06:41:41.440Z,1.98
2022-11-03T06:44:48.881Z,1.83
2022-11-03T06:47:53.564Z,1.90
2022-11-03T06:50:58.178Z,1.75
2022-11-03T06:54:01.461Z,2.00
2022-11-03T06:57:11.548Z,1.65
2022-11-03T07:00:40.372Z,2.08
2022-11-03T07:03:43.809Z,2.75
2022-11-03T07:06:52.999Z,1.80
2022-11-03T07:09:55.690Z,2.12
2022-11-03T07:13:07.026Z,2.22
2022-11-03T07:16:19.267Z,2.75
2022-11-03T07:19:23.328Z,2.00
2022-11-03T07:22:26.847Z,1.40
2022-11-03T07:25:29.124Z,3.05
2022-11-03T07:28:36.334Z,1.83
2022-11-03T07:31:38.636Z,2.97
2022-11-03T07:34:41.601Z,2.65
2022-11-03T07:37:45.698Z,3.40
2022-11-03T07:40:49.908Z,3.60
2022-11-03T07:44:00.719Z,3.03
2022-11-03T07:47:03.203Z,3.33
2022-11-03T07:50:14.810Z,3.47
2022-11-03T07:53:25.795Z,2.83
2022-11-03T07:57:05.212Z,3.95
2022-11-03T08:00:20.853Z,3.53
2022-11-03T08:03:46.180Z,4.00
2022-11-03T08:06:49.037Z,4.43
2022-11-03T08:09:51.928Z,3.45
2022-11-03T08:12:54.009Z,4.85
2022-11-03T08:15:56.388Z,4.93
2022-11-03T08:18:58.741Z,3.25
2022-11-03T08:22:01.049Z,3.70
2022-11-03T08:25:03.140Z,4.57
2022-11-03T08:28:05.699Z,4.60
2022-11-03T08:31:12.303Z,3.78
2022-11-03T08:37:17.702Z,5.85
2022-11-03T08:40:20.147Z,3.65
2022-11-03T08:43:22.268Z,4.97
2022-11-03T08:46:24.701Z,5.12
2022-11-03T08:49:26.957Z,4.20
2022-11-03T08:52:29.651Z,5.47
2022-11-03T08:55:31.784Z,4.87
2022-11-03T08:58:34.176Z,3.30
2022-11-03T09:01:36.284Z,4.37
2022-11-03T09:04:38.602Z,4.40
2022-11-03T09:11:03.479Z,3.92
2022-11-03T09:14:05.524Z,3.83
2022-11-03T09:17:07.873Z,5.10
2022-11-03T09:20:11.031Z,5.60
2022-11-03T09:23:13.337Z,5.82
2022-11-03T09:26:15.388Z,6.05
2022-11-03T09:29:17.864Z,4.32
2022-11-03T09:32:23.275Z,5.35
2022-11-03T09:35:26.059Z,4.35
2022-11-03T09:38:28.274Z,3.60
2022-11-03T09:41:53.648Z,4.07
2022-11-03T09:44:55.028Z,4.37
2022-11-03T09:47:57.449Z,4.30
2022-11-03T09:50:59.491Z,6.30
2022-11-03T09:54:05.857Z,4.37
2022-11-03T09:57:15.057Z,3.72
2022-11-03T10:00:22.599Z,6.00
2022-11-03T10:03:24.902Z,4.80
2022-11-03T10:06:26.965Z,5.40
2022-11-03T10:09:29.655Z,4.85
2022-11-03T10:12:36.664Z,5.87
2022-11-03T10:15:39.909Z,4.62
2022-11-03T10:18:42.745Z,4.32
2022-11-03T10:21:45.541Z,5.78
2022-11-03T10:24:48.036Z,5.55
2022-11-03T10:27:50.734Z,4.85
2022-11-03T10:31:17.293Z,5.72
2022-11-03T10:34:27.346Z,4.22
2022-11-03T10:37:29.438Z,5.10
2022-11-03T10:40:52.261Z,7.20
2022-11-03T10:44:12.684Z,4.53
2022-11-03T10:47:31.164Z,3.65
2022-11-03T10:50:33.196Z,6.32
2022-11-03T10:53:35.774Z,6.07
2022-11-03T10:56:38.039Z,5.45
2022-11-03T10:59:41.067Z,6.18
2022-11-03T11:02:46.082Z,5.43
2022-11-03T11:05:49.036Z,5.80
2022-11-03T11:08:59.667Z,5.05
2022-11-03T11:12:14.898Z,5.05
2022-11-03T11:15:37.555Z,5.22
2022-11-03T11:18:39.769Z,5.68
2022-11-03T11:21:41.737Z,4.87
2022-11-03T11:24:44.017Z,4.22
2022-11-03T11:27:58.605Z,5.57
2022-11-03T11:31:26.421Z,4.18
2022-11-03T11:34:34.151Z,3.72
2022-11-03T11:37:38.192Z,7.25
2022-11-03T11:41:00.581Z,5.95
2022-11-03T11:44:40.672Z,6.25
2022-11-03T11:47:50.695Z,5.78
2022-11-03T11:50:53.056Z,5.25
2022-11-03T11:54:16.689Z,4.50
2022-11-03T11:57:21.451Z,4.40
2022-11-03T12:00:30.099Z,5.78
2022-11-03T12:03:41.783Z,5.60
2022-11-03T12:06:47.666Z,5.95
2022-11-03T12:09:50.115Z,5.53
2022-11-03T12:12:53.613Z,6.50
2022-11-03T12:15:57.649Z,7.28
2022-11-03T12:19:39.246Z,4.55
2022-11-03T12:22:42.768Z,6.75
2022-11-03T12:25:44.819Z,6.30
2022-11-03T12:28:47.170Z,5.75
2022-11-03T12:31:50.150Z,4.55
2022-11-03T12:34:54.714Z,5.47
2022-11-03T12:37:56.775Z,6.62
2022-11-03T12:41:19.026Z,7.15
2022-11-03T12:44:31.104Z,6.50
2022-11-03T12:47:37.955Z,7.35
2022-11-03T12:50:40.680Z,6.25
2022-11-03T12:53:43.740Z,5.50
2022-11-03T12:56:45.785Z,6.75
2022-11-03T12:59:53.151Z,8.25
2022-11-03T13:02:56.119Z,6.12
2022-11-03T13:05:59.093Z,6.15
2022-11-03T13:09:01.137Z,9.07
2022-11-03T13:12:22.904Z,6.00
2022-11-03T13:15:29.136Z,6.25
2022-11-03T13:18:31.573Z,8.18
2022-11-03T13:21:33.641Z,6.20
2022-11-03T13:24:37.576Z,6.50
2022-11-03T13:27:40.302Z,7.80
2022-11-03T13:30:42.619Z,6.95
2022-11-03T13:33:44.645Z,5.00
2022-11-03T13:36:46.958Z,5.10
2022-11-03T13:39:49.038Z,4.93
2022-11-03T13:42:51.400Z,4.65
2022-11-03T13:45:54.008Z,7.18
2022-11-03T13:52:22.270Z,6.25
2022-11-03T14:05:32.057Z,6.28
2022-11-03T14:08:34.208Z,3.75
2022-11-03T14:11:55.052Z,5.25
2022-11-03T14:15:01.731Z,4.68
2022-11-03T14:18:04.243Z,4.37
2022-11-03T14:21:06.413Z,4.07
2022-11-03T14:24:09.105Z,4.87
2022-11-03T14:27:11.326Z,6.37
2022-11-03T14:30:14.227Z,5.78
2022-11-03T14:33:16.260Z,3.90
2022-11-03T14:36:19.037Z,3.62
2022-11-03T14:39:21.079Z,4.93
2022-11-03T14:42:23.363Z,4.87
2022-11-03T14:45:25.457Z,4.75
2022-11-03T14:48:27.796Z,5.15
2022-11-03T14:51:30.479Z,5.12
2022-11-03T14:54:33.539Z,5.97
2022-11-03T14:57:35.590Z,5.55
2022-11-03T15:00:37.899Z,4.97
2022-11-03T15:03:39.953Z,5.75
2022-11-03T15:06:42.457Z,4.70
2022-11-03T15:09:44.509Z,6.45
2022-11-03T15:12:46.850Z,5.00
2022-11-03T15:15:48.918Z,5.78
2022-11-03T15:18:51.395Z,6.10
2022-11-03T15:21:53.517Z,4.07
2022-11-03T15:28:13.476Z,4.47
2022-11-03T15:31:15.765Z,5.62
2022-11-03T15:34:18.146Z,5.47
2022-11-03T15:37:20.502Z,4.78
2022-11-03T15:40:22.551Z,5.22
2022-11-03T15:43:24.853Z,4.60
2022-11-03T15:46:26.899Z,5.65
2022-11-03T15:49:29.179Z,5.70
2022-11-03T15:52:31.374Z,4.75
2022-11-03T15:55:33.909Z,4.28
2022-11-03T15:58:37.404Z,5.12
2022-11-03T16:01:39.843Z,3.53
2022-11-03T16:04:42.417Z,4.72
2022-11-03T16:07:44.459Z,4.70
2022-11-03T16:10:53.159Z,4.53
2022-11-03T16:13:59.776Z,4.68
2022-11-03T16:17:02.102Z,3.90
2022-11-03T16:20:04.486Z,5.43
2022-11-03T16:23:06.830Z,4.10
2022-11-03T16:26:08.984Z,4.22
2022-11-03T16:29:11.330Z,5.47
2022-11-03T16:32:13.370Z,4.70
2022-11-03T16:35:15.676Z,6.25
2022-11-03T16:38:17.700Z,6.30
2022-11-03T16:41:20.221Z,4.47
